sensor_id;sensor_type;location;lat;lon;timestamp;P1;durP1;ratioP1;P2;durP2;ratioP2
13568;SDS011;6856;51.460;7.158;2023-08-12T00:02:20;4.65;;;3.70;;
13568;SDS011;6856;51.460;7.158;2023-08-12T00:04:54;4.90;;;3.33;;
13568;SDS011;6856;51.460;7.158;2023-08-12T00:07:29;5.45;;;3.63;;
13568;SDS011;6856;51.460;7.158;2023-08-12T00:10:08;5.47;;;3.45;;
13568;SDS011;6856;51.460;7.158;2023-08-12T00:12:44;3.85;;;3.22;;
13568;SDS011;6856;51.460;7.158;2023-08-12T00:15:17;4.03;;;3.20;;
13568;SDS011;6856;51.460;7.158;2023-08-12T00:17:51;4.00;;;3.35;;
13568;SDS011;6856;51.460;7.158;2023-08-12T00:20:25;4.72;;;3.10;;
13568;SDS011;6856;51.460;7.158;2023-08-12T00:23:01;3.88;;;2.85;;
13568;SDS011;6856;51.460;7.158;2023-08-12T00:25:35;3.83;;;2.92;;
13568;SDS011;6856;51.460;7.158;2023-08-12T00:28:09;5.00;;;3.50;;
13568;SDS011;6856;51.460;7.158;2023-08-12T00:30:42;4.38;;;3.78;;
13568;SDS011;6856;51.460;7.158;2023-08-12T00:33:16;5.57;;;3.67;;
13568;SDS011;6856;51.460;7.158;2023-08-12T00:35:49;4.70;;;3.83;;
13568;SDS011;6856;51.460;7.158;2023-08-12T00:38:25;5.10;;;3.92;;
13568;SDS011;6856;51.460;7.158;2023-08-12T00:40:58;5.45;;;3.38;;
13568;SDS011;6856;51.460;7.158;2023-08-12T00:43:32;5.20;;;3.40;;
13568;SDS011;6856;51.460;7.158;2023-08-12T00:46:06;4.80;;;3.72;;
13568;SDS011;6856;51.460;7.158;2023-08-12T00:48:40;5.25;;;3.65;;
13568;SDS011;6856;51.460;7.158;2023-08-12T00:51:14;4.85;;;3.50;;
13568;SDS011;6856;51.460;7.158;2023-08-12T00:53:50;4.15;;;3.42;;
13568;SDS011;6856;51.460;7.158;2023-08-12T00:56:26;4.68;;;3.50;;
13568;SDS011;6856;51.460;7.158;2023-08-12T00:59:00;4.78;;;3.47;;
13568;SDS011;6856;51.460;7.158;2023-08-12T01:01:38;4.38;;;3.42;;
13568;SDS011;6856;51.460;7.158;2023-08-12T01:04:15;4.60;;;3.50;;
13568;SDS011;6856;51.460;7.158;2023-08-12T01:06:49;4.97;;;3.85;;
13568;SDS011;6856;51.460;7.158;2023-08-12T01:09:23;4.70;;;3.60;;
13568;SDS011;6856;51.460;7.158;2023-08-12T01:11:59;4.63;;;3.58;;
13568;SDS011;6856;51.460;7.158;2023-08-12T01:14:43;5.53;;;4.25;;
13568;SDS011;6856;51.460;7.158;2023-08-12T01:17:24;6.13;;;4.07;;
13568;SDS011;6856;51.460;7.158;2023-08-12T01:20:02;5.95;;;4.13;;
13568;SDS011;6856;51.460;7.158;2023-08-12T01:22:41;6.20;;;4.85;;
13568;SDS011;6856;51.460;7.158;2023-08-12T01:25:19;7.10;;;4.75;;
13568;SDS011;6856;51.460;7.158;2023-08-12T01:27:53;6.70;;;4.78;;
13568;SDS011;6856;51.460;7.158;2023-08-12T01:30:28;5.55;;;4.43;;
13568;SDS011;6856;51.460;7.158;2023-08-12T01:33:04;6.22;;;4.75;;
13568;SDS011;6856;51.460;7.158;2023-08-12T01:35:50;5.97;;;4.30;;
13568;SDS011;6856;51.460;7.158;2023-08-12T01:38:29;5.43;;;4.78;;
13568;SDS011;6856;51.460;7.158;2023-08-12T01:41:08;5.82;;;5.03;;
13568;SDS011;6856;51.460;7.158;2023-08-12T01:43:44;5.60;;;4.07;;
13568;SDS011;6856;51.460;7.158;2023-08-12T01:46:19;6.20;;;4.78;;
13568;SDS011;6856;51.460;7.158;2023-08-12T01:48:54;6.90;;;5.93;;
13568;SDS011;6856;51.460;7.158;2023-08-12T01:51:29;6.95;;;5.30;;
13568;SDS011;6856;51.460;7.158;2023-08-12T01:54:02;6.43;;;5.57;;
13568;SDS011;6856;51.460;7.158;2023-08-12T01:56:38;6.60;;;5.07;;
13568;SDS011;6856;51.460;7.158;2023-08-12T01:59:12;6.75;;;4.85;;
13568;SDS011;6856;51.460;7.158;2023-08-12T02:01:46;6.57;;;5.07;;
13568;SDS011;6856;51.460;7.158;2023-08-12T02:04:19;6.45;;;5.45;;
13568;SDS011;6856;51.460;7.158;2023-08-12T02:06:54;6.65;;;5.88;;
13568;SDS011;6856;51.460;7.158;2023-08-12T02:09:28;6.38;;;5.38;;
13568;SDS011;6856;51.460;7.158;2023-08-12T02:12:05;7.18;;;5.45;;
13568;SDS011;6856;51.460;7.158;2023-08-12T02:14:40;11.25;;;6.13;;
13568;SDS011;6856;51.460;7.158;2023-08-12T02:17:13;7.57;;;6.28;;
13568;SDS011;6856;51.460;7.158;2023-08-12T02:19:47;8.25;;;6.45;;
13568;SDS011;6856;51.460;7.158;2023-08-12T02:22:21;7.43;;;6.20;;
13568;SDS011;6856;51.460;7.158;2023-08-12T02:24:56;6.88;;;5.97;;
13568;SDS011;6856;51.460;7.158;2023-08-12T02:27:33;7.35;;;6.20;;
13568;SDS011;6856;51.460;7.158;2023-08-12T02:30:07;5.80;;;4.75;;
13568;SDS011;6856;51.460;7.158;2023-08-12T02:32:42;8.93;;;7.25;;
13568;SDS011;6856;51.460;7.158;2023-08-12T02:35:16;6.55;;;5.65;;
13568;SDS011;6856;51.460;7.158;2023-08-12T02:37:51;5.88;;;5.28;;
13568;SDS011;6856;51.460;7.158;2023-08-12T02:40:24;5.35;;;4.70;;
13568;SDS011;6856;51.460;7.158;2023-08-12T02:42:59;5.65;;;5.03;;
13568;SDS011;6856;51.460;7.158;2023-08-12T02:45:33;6.07;;;5.47;;
13568;SDS011;6856;51.460;7.158;2023-08-12T02:48:07;6.30;;;5.70;;
13568;SDS011;6856;51.460;7.158;2023-08-12T02:50:42;6.55;;;5.85;;
13568;SDS011;6856;51.460;7.158;2023-08-12T02:53:16;6.65;;;5.10;;
13568;SDS011;6856;51.460;7.158;2023-08-12T02:55:50;7.15;;;5.72;;
13568;SDS011;6856;51.460;7.158;2023-08-12T02:58:25;6.75;;;5.43;;
13568;SDS011;6856;51.460;7.158;2023-08-12T03:00:59;5.88;;;5.30;;
13568;SDS011;6856;51.460;7.158;2023-08-12T03:03:33;5.50;;;4.97;;
13568;SDS011;6856;51.460;7.158;2023-08-12T03:06:07;5.82;;;4.93;;
13568;SDS011;6856;51.460;7.158;2023-08-12T03:08:40;6.72;;;5.47;;
13568;SDS011;6856;51.460;7.158;2023-08-12T03:11:14;5.57;;;4.85;;
13568;SDS011;6856;51.460;7.158;2023-08-12T03:13:52;5.68;;;4.75;;
13568;SDS011;6856;51.460;7.158;2023-08-12T03:16:26;7.05;;;5.38;;
13568;SDS011;6856;51.460;7.158;2023-08-12T03:19:00;6.47;;;5.45;;
13568;SDS011;6856;51.460;7.158;2023-08-12T03:21:33;5.65;;;5.05;;
13568;SDS011;6856;51.460;7.158;2023-08-12T03:24:07;5.15;;;4.22;;
13568;SDS011;6856;51.460;7.158;2023-08-12T03:26:41;6.18;;;4.78;;
13568;SDS011;6856;51.460;7.158;2023-08-12T03:29:17;6.40;;;5.55;;
13568;SDS011;6856;51.460;7.158;2023-08-12T03:31:50;5.03;;;4.18;;
13568;SDS011;6856;51.460;7.158;2023-08-12T03:34:24;5.18;;;4.15;;
13568;SDS011;6856;51.460;7.158;2023-08-12T03:37:01;4.80;;;4.30;;
13568;SDS011;6856;51.460;7.158;2023-08-12T03:39:35;5.22;;;4.15;;
13568;SDS011;6856;51.460;7.158;2023-08-12T03:42:08;5.05;;;4.38;;
13568;SDS011;6856;51.460;7.158;2023-08-12T03:44:44;6.57;;;5.13;;
13568;SDS011;6856;51.460;7.158;2023-08-12T03:47:17;5.10;;;4.00;;
13568;SDS011;6856;51.460;7.158;2023-08-12T03:49:55;5.78;;;5.10;;
13568;SDS011;6856;51.460;7.158;2023-08-12T03:52:28;5.55;;;4.20;;
13568;SDS011;6856;51.460;7.158;2023-08-12T03:55:02;5.97;;;4.70;;
13568;SDS011;6856;51.460;7.158;2023-08-12T03:57:37;6.03;;;4.07;;
13568;SDS011;6856;51.460;7.158;2023-08-12T04:00:13;5.97;;;4.80;;
13568;SDS011;6856;51.460;7.158;2023-08-12T04:02:48;5.38;;;4.03;;
13568;SDS011;6856;51.460;7.158;2023-08-12T04:05:22;5.28;;;4.53;;
13568;SDS011;6856;51.460;7.158;2023-08-12T04:07:56;5.75;;;4.45;;
13568;SDS011;6856;51.460;7.158;2023-08-12T04:10:30;5.38;;;4.57;;
13568;SDS011;6856;51.460;7.158;2023-08-12T04:13:03;5.07;;;4.20;;
13568;SDS011;6856;51.460;7.158;2023-08-12T04:15:39;4.32;;;3.72;;
13568;SDS011;6856;51.460;7.158;2023-08-12T04:18:13;5.38;;;4.45;;
13568;SDS011;6856;51.460;7.158;2023-08-12T04:20:47;5.22;;;4.07;;
13568;SDS011;6856;51.460;7.158;2023-08-12T04:23:22;5.25;;;3.90;;
13568;SDS011;6856;51.460;7.158;2023-08-12T04:25:56;5.40;;;4.22;;
13568;SDS011;6856;51.460;7.158;2023-08-12T04:28:31;4.82;;;4.32;;
13568;SDS011;6856;51.460;7.158;2023-08-12T04:31:07;4.57;;;3.97;;
13568;SDS011;6856;51.460;7.158;2023-08-12T04:33:40;4.60;;;4.10;;
13568;SDS011;6856;51.460;7.158;2023-08-12T04:36:14;5.40;;;3.90;;
13568;SDS011;6856;51.460;7.158;2023-08-12T04:38:48;4.22;;;3.83;;
13568;SDS011;6856;51.460;7.158;2023-08-12T04:41:21;4.80;;;4.05;;
13568;SDS011;6856;51.460;7.158;2023-08-12T04:43:55;5.18;;;3.95;;
13568;SDS011;6856;51.460;7.158;2023-08-12T04:46:30;4.18;;;3.50;;
13568;SDS011;6856;51.460;7.158;2023-08-12T04:49:04;5.07;;;3.60;;
13568;SDS011;6856;51.460;7.158;2023-08-12T04:51:38;3.67;;;3.25;;
13568;SDS011;6856;51.460;7.158;2023-08-12T04:54:11;4.13;;;3.58;;
13568;SDS011;6856;51.460;7.158;2023-08-12T04:56:45;4.70;;;3.55;;
13568;SDS011;6856;51.460;7.158;2023-08-12T04:59:18;4.05;;;3.45;;
13568;SDS011;6856;51.460;7.158;2023-08-12T05:01:54;4.35;;;3.63;;
13568;SDS011;6856;51.460;7.158;2023-08-12T05:04:48;3.53;;;2.90;;
13568;SDS011;6856;51.460;7.158;2023-08-12T05:07:22;3.50;;;3.08;;
13568;SDS011;6856;51.460;7.158;2023-08-12T05:09:56;3.92;;;3.10;;
13568;SDS011;6856;51.460;7.158;2023-08-12T05:12:29;3.78;;;3.03;;
13568;SDS011;6856;51.460;7.158;2023-08-12T05:15:04;4.13;;;3.08;;
13568;SDS011;6856;51.460;7.158;2023-08-12T05:17:40;3.95;;;3.15;;
13568;SDS011;6856;51.460;7.158;2023-08-12T05:20:14;4.43;;;3.38;;
13568;SDS011;6856;51.460;7.158;2023-08-12T05:22:48;4.05;;;3.45;;
13568;SDS011;6856;51.460;7.158;2023-08-12T05:25:22;4.45;;;3.72;;
13568;SDS011;6856;51.460;7.158;2023-08-12T05:27:56;5.40;;;3.33;;
13568;SDS011;6856;51.460;7.158;2023-08-12T05:30:30;3.38;;;3.05;;
13568;SDS011;6856;51.460;7.158;2023-08-12T05:33:05;3.30;;;2.67;;
13568;SDS011;6856;51.460;7.158;2023-08-12T05:35:39;4.15;;;3.53;;
13568;SDS011;6856;51.460;7.158;2023-08-12T05:38:12;4.93;;;3.10;;
13568;SDS011;6856;51.460;7.158;2023-08-12T05:40:46;4.60;;;2.95;;
13568;SDS011;6856;51.460;7.158;2023-08-12T05:43:20;3.50;;;2.85;;
13568;SDS011;6856;51.460;7.158;2023-08-12T05:45:54;3.15;;;2.58;;
13568;SDS011;6856;51.460;7.158;2023-08-12T05:48:29;6.45;;;3.60;;
13568;SDS011;6856;51.460;7.158;2023-08-12T05:51:03;3.22;;;2.55;;
13568;SDS011;6856;51.460;7.158;2023-08-12T05:53:37;4.47;;;3.40;;
13568;SDS011;6856;51.460;7.158;2023-08-12T05:56:11;4.30;;;3.25;;
13568;SDS011;6856;51.460;7.158;2023-08-12T05:58:44;3.20;;;2.88;;
13568;SDS011;6856;51.460;7.158;2023-08-12T06:01:18;4.57;;;3.20;;
13568;SDS011;6856;51.460;7.158;2023-08-12T06:03:54;5.55;;;2.72;;
13568;SDS011;6856;51.460;7.158;2023-08-12T06:06:27;3.22;;;2.75;;
13568;SDS011;6856;51.460;7.158;2023-08-12T06:09:01;3.45;;;2.92;;
13568;SDS011;6856;51.460;7.158;2023-08-12T06:11:35;3.90;;;2.88;;
13568;SDS011;6856;51.460;7.158;2023-08-12T06:14:08;4.07;;;3.08;;
13568;SDS011;6856;51.460;7.158;2023-08-12T06:16:42;4.18;;;3.08;;
13568;SDS011;6856;51.460;7.158;2023-08-12T06:19:18;3.97;;;2.35;;
13568;SDS011;6856;51.460;7.158;2023-08-12T06:21:51;3.17;;;2.60;;
13568;SDS011;6856;51.460;7.158;2023-08-12T06:24:25;3.65;;;2.90;;
13568;SDS011;6856;51.460;7.158;2023-08-12T06:26:59;4.88;;;2.65;;
13568;SDS011;6856;51.460;7.158;2023-08-12T06:29:33;5.57;;;3.05;;
13568;SDS011;6856;51.460;7.158;2023-08-12T06:32:07;3.88;;;2.55;;
13568;SDS011;6856;51.460;7.158;2023-08-12T06:34:46;2.88;;;2.35;;
13568;SDS011;6856;51.460;7.158;2023-08-12T06:37:20;4.13;;;2.60;;
13568;SDS011;6856;51.460;7.158;2023-08-12T06:39:53;3.42;;;2.47;;
13568;SDS011;6856;51.460;7.158;2023-08-12T06:42:27;3.40;;;2.33;;
13568;SDS011;6856;51.460;7.158;2023-08-12T06:45:01;3.65;;;2.47;;
13568;SDS011;6856;51.460;7.158;2023-08-12T06:47:35;3.15;;;1.98;;
13568;SDS011;6856;51.460;7.158;2023-08-12T06:50:10;4.05;;;1.88;;
13568;SDS011;6856;51.460;7.158;2023-08-12T06:52:44;2.63;;;2.20;;
13568;SDS011;6856;51.460;7.158;2023-08-12T06:55:18;4.68;;;2.33;;
13568;SDS011;6856;51.460;7.158;2023-08-12T06:57:52;3.20;;;2.30;;
13568;SDS011;6856;51.460;7.158;2023-08-12T07:00:25;3.55;;;2.40;;
13568;SDS011;6856;51.460;7.158;2023-08-12T07:02:59;2.88;;;2.03;;
13568;SDS011;6856;51.460;7.158;2023-08-12T07:05:35;3.53;;;2.10;;
13568;SDS011;6856;51.460;7.158;2023-08-12T07:08:08;2.72;;;2.00;;
13568;SDS011;6856;51.460;7.158;2023-08-12T07:10:42;2.97;;;2.20;;
13568;SDS011;6856;51.460;7.158;2023-08-12T07:13:16;2.70;;;1.88;;
13568;SDS011;6856;51.460;7.158;2023-08-12T07:15:49;1.90;;;1.70;;
13568;SDS011;6856;51.460;7.158;2023-08-12T07:18:23;2.72;;;1.67;;
13568;SDS011;6856;51.460;7.158;2023-08-12T07:20:58;2.47;;;2.00;;
13568;SDS011;6856;51.460;7.158;2023-08-12T07:23:32;2.25;;;1.65;;
13568;SDS011;6856;51.460;7.158;2023-08-12T07:26:06;3.15;;;1.90;;
13568;SDS011;6856;51.460;7.158;2023-08-12T07:28:41;2.67;;;1.80;;
13568;SDS011;6856;51.460;7.158;2023-08-12T07:31:15;2.70;;;2.08;;
13568;SDS011;6856;51.460;7.158;2023-08-12T07:33:49;2.55;;;1.70;;
13568;SDS011;6856;51.460;7.158;2023-08-12T07:36:24;2.70;;;1.70;;
13568;SDS011;6856;51.460;7.158;2023-08-12T07:38:59;2.60;;;1.90;;
13568;SDS011;6856;51.460;7.158;2023-08-12T07:41:34;1.95;;;1.52;;
13568;SDS011;6856;51.460;7.158;2023-08-12T07:44:08;1.95;;;1.75;;
13568;SDS011;6856;51.460;7.158;2023-08-12T07:46:41;1.85;;;1.60;;
13568;SDS011;6856;51.460;7.158;2023-08-12T07:49:15;2.33;;;1.90;;
13568;SDS011;6856;51.460;7.158;2023-08-12T07:51:53;2.28;;;1.60;;
13568;SDS011;6856;51.460;7.158;2023-08-12T07:54:27;1.92;;;1.73;;
13568;SDS011;6856;51.460;7.158;2023-08-12T07:57:00;2.38;;;1.60;;
13568;SDS011;6856;51.460;7.158;2023-08-12T07:59:35;1.92;;;1.70;;
13568;SDS011;6856;51.460;7.158;2023-08-12T08:02:08;1.95;;;1.63;;
13568;SDS011;6856;51.460;7.158;2023-08-12T08:04:42;2.53;;;1.60;;
13568;SDS011;6856;51.460;7.158;2023-08-12T08:07:18;2.05;;;1.65;;
13568;SDS011;6856;51.460;7.158;2023-08-12T08:09:51;1.85;;;1.63;;
13568;SDS011;6856;51.460;7.158;2023-08-12T08:12:25;2.17;;;1.55;;
13568;SDS011;6856;51.460;7.158;2023-08-12T08:14:58;2.78;;;1.88;;
13568;SDS011;6856;51.460;7.158;2023-08-12T08:17:32;2.78;;;1.50;;
13568;SDS011;6856;51.460;7.158;2023-08-12T08:20:09;2.05;;;1.45;;
13568;SDS011;6856;51.460;7.158;2023-08-12T08:22:45;2.42;;;1.50;;
13568;SDS011;6856;51.460;7.158;2023-08-12T08:25:18;3.10;;;2.03;;
13568;SDS011;6856;51.460;7.158;2023-08-12T08:27:52;2.80;;;1.98;;
13568;SDS011;6856;51.460;7.158;2023-08-12T08:30:26;1.90;;;1.70;;
13568;SDS011;6856;51.460;7.158;2023-08-12T08:33:00;2.17;;;1.80;;
13568;SDS011;6856;51.460;7.158;2023-08-12T08:35:33;2.25;;;2.05;;
13568;SDS011;6856;51.460;7.158;2023-08-12T08:38:09;2.45;;;2.00;;
13568;SDS011;6856;51.460;7.158;2023-08-12T08:40:42;1.92;;;1.73;;
13568;SDS011;6856;51.460;7.158;2023-08-12T08:43:17;2.35;;;2.15;;
13568;SDS011;6856;51.460;7.158;2023-08-12T08:45:54;3.17;;;2.13;;
13568;SDS011;6856;51.460;7.158;2023-08-12T08:48:29;2.08;;;1.83;;
13568;SDS011;6856;51.460;7.158;2023-08-12T08:51:07;2.70;;;2.08;;
13568;SDS011;6856;51.460;7.158;2023-08-12T08:53:44;4.70;;;2.65;;
13568;SDS011;6856;51.460;7.158;2023-08-12T08:56:22;3.75;;;2.40;;
13568;SDS011;6856;51.460;7.158;2023-08-12T08:59:00;2.40;;;2.03;;
13568;SDS011;6856;51.460;7.158;2023-08-12T09:01:34;2.90;;;2.30;;
13568;SDS011;6856;51.460;7.158;2023-08-12T09:04:09;3.00;;;2.40;;
13568;SDS011;6856;51.460;7.158;2023-08-12T09:06:44;3.70;;;2.28;;
13568;SDS011;6856;51.460;7.158;2023-08-12T09:09:20;3.53;;;2.60;;
13568;SDS011;6856;51.460;7.158;2023-08-12T09:11:56;2.72;;;2.30;;
13568;SDS011;6856;51.460;7.158;2023-08-12T09:14:30;3.65;;;2.40;;
13568;SDS011;6856;51.460;7.158;2023-08-12T09:17:05;4.07;;;2.60;;
13568;SDS011;6856;51.460;7.158;2023-08-12T09:19:39;3.05;;;2.38;;
13568;SDS011;6856;51.460;7.158;2023-08-12T09:22:13;2.78;;;2.25;;
13568;SDS011;6856;51.460;7.158;2023-08-12T09:24:50;2.33;;;2.08;;
13568;SDS011;6856;51.460;7.158;2023-08-12T09:27:30;2.53;;;2.10;;
13568;SDS011;6856;51.460;7.158;2023-08-12T09:30:04;2.45;;;2.20;;
13568;SDS011;6856;51.460;7.158;2023-08-12T09:32:40;2.20;;;2.00;;
13568;SDS011;6856;51.460;7.158;2023-08-12T09:35:15;1.73;;;1.50;;
13568;SDS011;6856;51.460;7.158;2023-08-12T09:37:49;2.30;;;1.80;;
13568;SDS011;6856;51.460;7.158;2023-08-12T09:40:25;2.00;;;1.80;;
13568;SDS011;6856;51.460;7.158;2023-08-12T09:42:59;2.08;;;1.73;;
13568;SDS011;6856;51.460;7.158;2023-08-12T09:45:34;2.10;;;1.67;;
13568;SDS011;6856;51.460;7.158;2023-08-12T09:48:08;2.50;;;1.85;;
13568;SDS011;6856;51.460;7.158;2023-08-12T09:50:45;3.33;;;1.92;;
13568;SDS011;6856;51.460;7.158;2023-08-12T09:53:21;2.97;;;1.70;;
13568;SDS011;6856;51.460;7.158;2023-08-12T09:55:58;3.47;;;1.83;;
13568;SDS011;6856;51.460;7.158;2023-08-12T09:58:39;1.40;;;1.25;;
13568;SDS011;6856;51.460;7.158;2023-08-12T10:01:16;2.15;;;1.50;;
13568;SDS011;6856;51.460;7.158;2023-08-12T10:03:53;2.55;;;1.60;;
13568;SDS011;6856;51.460;7.158;2023-08-12T10:06:27;1.77;;;1.50;;
13568;SDS011;6856;51.460;7.158;2023-08-12T10:09:02;3.63;;;1.50;;
13568;SDS011;6856;51.460;7.158;2023-08-12T10:11:38;1.25;;;1.00;;
13568;SDS011;6856;51.460;7.158;2023-08-12T10:14:15;2.00;;;1.45;;
13568;SDS011;6856;51.460;7.158;2023-08-12T10:16:48;2.28;;;1.10;;
13568;SDS011;6856;51.460;7.158;2023-08-12T10:19:22;2.45;;;1.20;;
13568;SDS011;6856;51.460;7.158;2023-08-12T10:21:58;1.15;;;1.00;;
13568;SDS011;6856;51.460;7.158;2023-08-12T10:24:35;2.00;;;1.20;;
13568;SDS011;6856;51.460;7.158;2023-08-12T10:27:13;1.13;;;1.00;;
13568;SDS011;6856;51.460;7.158;2023-08-12T10:29:47;1.35;;;1.13;;
13568;SDS011;6856;51.460;7.158;2023-08-12T10:32:21;1.35;;;1.20;;
13568;SDS011;6856;51.460;7.158;2023-08-12T10:34:56;1.83;;;1.15;;
13568;SDS011;6856;51.460;7.158;2023-08-12T10:37:31;1.10;;;0.82;;
13568;SDS011;6856;51.460;7.158;2023-08-12T10:40:18;1.08;;;0.82;;
13568;SDS011;6856;51.460;7.158;2023-08-12T10:42:56;2.15;;;1.15;;
13568;SDS011;6856;51.460;7.158;2023-08-12T10:45:40;1.27;;;0.93;;
13568;SDS011;6856;51.460;7.158;2023-08-12T10:48:17;0.80;;;0.80;;
13568;SDS011;6856;51.460;7.158;2023-08-12T10:50:55;1.05;;;0.90;;
13568;SDS011;6856;51.460;7.158;2023-08-12T10:53:32;0.93;;;0.90;;
13568;SDS011;6856;51.460;7.158;2023-08-12T10:56:07;0.98;;;0.88;;
13568;SDS011;6856;51.460;7.158;2023-08-12T10:58:46;0.95;;;0.90;;
13568;SDS011;6856;51.460;7.158;2023-08-12T11:01:20;1.65;;;1.17;;
13568;SDS011;6856;51.460;7.158;2023-08-12T11:03:55;0.80;;;0.80;;
13568;SDS011;6856;51.460;7.158;2023-08-12T11:06:31;1.38;;;1.00;;
13568;SDS011;6856;51.460;7.158;2023-08-12T11:09:21;2.42;;;1.10;;
13568;SDS011;6856;51.460;7.158;2023-08-12T11:11:56;1.10;;;1.00;;
13568;SDS011;6856;51.460;7.158;2023-08-12T11:14:33;1.00;;;0.90;;
13568;SDS011;6856;51.460;7.158;2023-08-12T11:17:24;1.55;;;0.95;;
13568;SDS011;6856;51.460;7.158;2023-08-12T11:20:05;1.05;;;0.85;;
13568;SDS011;6856;51.460;7.158;2023-08-12T11:22:42;1.55;;;0.82;;
13568;SDS011;6856;51.460;7.158;2023-08-12T11:25:17;1.25;;;0.70;;
13568;SDS011;6856;51.460;7.158;2023-08-12T11:27:51;0.47;;;0.47;;
13568;SDS011;6856;51.460;7.158;2023-08-12T11:30:26;0.57;;;0.47;;
13568;SDS011;6856;51.460;7.158;2023-08-12T11:33:04;0.60;;;0.60;;
13568;SDS011;6856;51.460;7.158;2023-08-12T11:35:42;0.70;;;0.60;;
13568;SDS011;6856;51.460;7.158;2023-08-12T11:38:17;0.60;;;0.52;;
13568;SDS011;6856;51.460;7.158;2023-08-12T11:40:54;0.55;;;0.55;;
13568;SDS011;6856;51.460;7.158;2023-08-12T11:43:28;0.60;;;0.60;;
13568;SDS011;6856;51.460;7.158;2023-08-12T11:46:04;0.77;;;0.60;;
13568;SDS011;6856;51.460;7.158;2023-08-12T11:48:38;1.00;;;0.50;;
13568;SDS011;6856;51.460;7.158;2023-08-12T11:51:13;1.02;;;0.70;;
13568;SDS011;6856;51.460;7.158;2023-08-12T11:53:47;0.45;;;0.45;;
13568;SDS011;6856;51.460;7.158;2023-08-12T11:56:21;0.65;;;0.63;;
13568;SDS011;6856;51.460;7.158;2023-08-12T11:58:55;0.50;;;0.50;;
13568;SDS011;6856;51.460;7.158;2023-08-12T12:01:31;0.82;;;0.63;;
13568;SDS011;6856;51.460;7.158;2023-08-12T12:04:04;0.50;;;0.50;;
13568;SDS011;6856;51.460;7.158;2023-08-12T12:06:38;0.60;;;0.52;;
13568;SDS011;6856;51.460;7.158;2023-08-12T12:09:12;0.90;;;0.55;;
13568;SDS011;6856;51.460;7.158;2023-08-12T12:11:46;0.60;;;0.50;;
13568;SDS011;6856;51.460;7.158;2023-08-12T12:14:25;0.50;;;0.50;;
13568;SDS011;6856;51.460;7.158;2023-08-12T12:17:06;0.50;;;0.50;;
13568;SDS011;6856;51.460;7.158;2023-08-12T12:19:41;0.50;;;0.50;;
13568;SDS011;6856;51.460;7.158;2023-08-12T12:22:16;0.50;;;0.50;;
13568;SDS011;6856;51.460;7.158;2023-08-12T12:24:50;0.75;;;0.75;;
13568;SDS011;6856;51.460;7.158;2023-08-12T12:27:23;1.35;;;0.55;;
13568;SDS011;6856;51.460;7.158;2023-08-12T12:29:57;0.50;;;0.50;;
13568;SDS011;6856;51.460;7.158;2023-08-12T12:32:33;0.52;;;0.52;;
13568;SDS011;6856;51.460;7.158;2023-08-12T12:35:07;0.50;;;0.50;;
13568;SDS011;6856;51.460;7.158;2023-08-12T12:37:41;0.60;;;0.60;;
13568;SDS011;6856;51.460;7.158;2023-08-12T12:40:15;1.23;;;0.90;;
13568;SDS011;6856;51.460;7.158;2023-08-12T12:42:51;1.55;;;0.70;;
13568;SDS011;6856;51.460;7.158;2023-08-12T12:45:24;0.70;;;0.70;;
13568;SDS011;6856;51.460;7.158;2023-08-12T12:47:59;1.38;;;0.80;;
13568;SDS011;6856;51.460;7.158;2023-08-12T12:50:34;1.20;;;0.95;;
13568;SDS011;6856;51.460;7.158;2023-08-12T12:53:09;1.10;;;0.90;;
13568;SDS011;6856;51.460;7.158;2023-08-12T12:55:43;1.88;;;0.95;;
13568;SDS011;6856;51.460;7.158;2023-08-12T12:58:17;1.15;;;0.90;;
13568;SDS011;6856;51.460;7.158;2023-08-12T13:00:51;2.33;;;0.80;;
13568;SDS011;6856;51.460;7.158;2023-08-12T13:03:26;0.90;;;0.90;;
13568;SDS011;6856;51.460;7.158;2023-08-12T13:06:00;0.90;;;0.88;;
13568;SDS011;6856;51.460;7.158;2023-08-12T13:08:34;1.63;;;0.95;;
13568;SDS011;6856;51.460;7.158;2023-08-12T13:11:08;1.17;;;1.08;;
13568;SDS011;6856;51.460;7.158;2023-08-12T13:13:41;0.93;;;0.93;;
13568;SDS011;6856;51.460;7.158;2023-08-12T13:16:15;1.23;;;1.13;;
13568;SDS011;6856;51.460;7.158;2023-08-12T13:18:51;1.50;;;1.10;;
13568;SDS011;6856;51.460;7.158;2023-08-12T13:21:25;1.27;;;1.10;;
13568;SDS011;6856;51.460;7.158;2023-08-12T13:23:59;2.28;;;1.30;;
13568;SDS011;6856;51.460;7.158;2023-08-12T13:26:35;1.50;;;1.10;;
13568;SDS011;6856;51.460;7.158;2023-08-12T13:29:08;1.67;;;1.40;;
13568;SDS011;6856;51.460;7.158;2023-08-12T13:31:43;2.20;;;1.85;;
13568;SDS011;6856;51.460;7.158;2023-08-12T13:34:19;1.83;;;1.67;;
13568;SDS011;6856;51.460;7.158;2023-08-12T13:36:53;2.40;;;1.58;;
13568;SDS011;6856;51.460;7.158;2023-08-12T13:39:27;1.65;;;1.42;;
13568;SDS011;6856;51.460;7.158;2023-08-12T13:42:01;1.88;;;1.50;;
13568;SDS011;6856;51.460;7.158;2023-08-12T13:44:35;1.80;;;1.70;;
13568;SDS011;6856;51.460;7.158;2023-08-12T13:47:09;2.28;;;1.90;;
13568;SDS011;6856;51.460;7.158;2023-08-12T13:49:43;2.20;;;2.00;;
13568;SDS011;6856;51.460;7.158;2023-08-12T13:52:17;2.40;;;2.15;;
13568;SDS011;6856;51.460;7.158;2023-08-12T13:54:51;3.05;;;2.75;;
13568;SDS011;6856;51.460;7.158;2023-08-12T13:57:24;3.65;;;3.28;;
13568;SDS011;6856;51.460;7.158;2023-08-12T13:59:58;4.60;;;3.85;;
13568;SDS011;6856;51.460;7.158;2023-08-12T14:02:32;4.82;;;4.35;;
13568;SDS011;6856;51.460;7.158;2023-08-12T14:05:09;4.07;;;3.70;;
13568;SDS011;6856;51.460;7.158;2023-08-12T14:07:44;5.10;;;4.22;;
13568;SDS011;6856;51.460;7.158;2023-08-12T14:10:18;4.47;;;4.05;;
13568;SDS011;6856;51.460;7.158;2023-08-12T14:12:52;4.80;;;4.22;;
13568;SDS011;6856;51.460;7.158;2023-08-12T14:15:26;3.97;;;3.58;;
13568;SDS011;6856;51.460;7.158;2023-08-12T14:18:00;3.72;;;3.42;;
13568;SDS011;6856;51.460;7.158;2023-08-12T14:20:36;4.80;;;3.85;;
13568;SDS011;6856;51.460;7.158;2023-08-12T14:23:10;3.67;;;3.10;;
13568;SDS011;6856;51.460;7.158;2023-08-12T14:25:44;4.20;;;3.80;;
13568;SDS011;6856;51.460;7.158;2023-08-12T14:28:18;3.10;;;2.80;;
13568;SDS011;6856;51.460;7.158;2023-08-12T14:30:53;4.10;;;2.53;;
13568;SDS011;6856;51.460;7.158;2023-08-12T14:33:28;2.60;;;2.40;;
13568;SDS011;6856;51.460;7.158;2023-08-12T14:36:04;3.28;;;2.83;;
13568;SDS011;6856;51.460;7.158;2023-08-12T14:38:39;3.00;;;2.70;;
13568;SDS011;6856;51.460;7.158;2023-08-12T14:41:12;3.10;;;2.80;;
13568;SDS011;6856;51.460;7.158;2023-08-12T14:43:46;2.47;;;2.22;;
13568;SDS011;6856;51.460;7.158;2023-08-12T14:46:20;3.08;;;2.70;;
13568;SDS011;6856;51.460;7.158;2023-08-12T14:48:53;2.60;;;2.10;;
13568;SDS011;6856;51.460;7.158;2023-08-12T14:51:30;2.47;;;2.28;;
13568;SDS011;6856;51.460;7.158;2023-08-12T14:54:04;2.78;;;2.50;;
13568;SDS011;6856;51.460;7.158;2023-08-12T14:56:39;2.60;;;2.33;;
13568;SDS011;6856;51.460;7.158;2023-08-12T14:59:12;2.55;;;2.35;;
13568;SDS011;6856;51.460;7.158;2023-08-12T15:01:46;3.03;;;2.72;;
13568;SDS011;6856;51.460;7.158;2023-08-12T15:04:20;2.63;;;2.38;;
13568;SDS011;6856;51.460;7.158;2023-08-12T15:06:55;2.60;;;2.40;;
13568;SDS011;6856;51.460;7.158;2023-08-12T15:09:29;3.40;;;2.67;;
13568;SDS011;6856;51.460;7.158;2023-08-12T15:12:03;2.40;;;2.20;;
13568;SDS011;6856;51.460;7.158;2023-08-12T15:14:38;4.53;;;3.60;;
13568;SDS011;6856;51.460;7.158;2023-08-12T15:17:11;4.40;;;4.00;;
13568;SDS011;6856;51.460;7.158;2023-08-12T15:19:46;4.53;;;4.13;;
13568;SDS011;6856;51.460;7.158;2023-08-12T15:22:21;4.03;;;3.67;;
13568;SDS011;6856;51.460;7.158;2023-08-12T15:24:55;5.88;;;5.28;;
13568;SDS011;6856;51.460;7.158;2023-08-12T15:27:30;5.15;;;4.65;;
13568;SDS011;6856;51.460;7.158;2023-08-12T15:30:05;4.65;;;4.25;;
13568;SDS011;6856;51.460;7.158;2023-08-12T15:32:42;4.70;;;4.15;;
13568;SDS011;6856;51.460;7.158;2023-08-12T15:35:16;4.57;;;4.00;;
13568;SDS011;6856;51.460;7.158;2023-08-12T15:37:52;4.63;;;4.07;;
13568;SDS011;6856;51.460;7.158;2023-08-12T15:40:25;4.55;;;3.85;;
13568;SDS011;6856;51.460;7.158;2023-08-12T15:42:59;3.65;;;3.22;;
13568;SDS011;6856;51.460;7.158;2023-08-12T15:45:33;3.38;;;2.67;;
13568;SDS011;6856;51.460;7.158;2023-08-12T15:48:11;2.90;;;2.60;;